Dutch Fork, South Carolina
Current Conditions -  °F | °C
As of 4:56 AM on Sunday 21 Dec 2014 (Local Time) from KCAE Reporting Station
Overcast Overcast  
Wind Chill: 45°   Ceiling: 6500
Heat Index: 45°   Visibility: 8mi
Dew Point: 39°   Wind: 3mph
Humidity: 80%   Direction: 20°NNE
Pressure: 30.22"   Gusts: NA
Location:  34.0549°N, 81.113°W
Report Text: KCAE 210956Z 02003KT 8SM OVC065 07/04 A3022 RMK AO2 SLP232 T00720039
Loading
Personal Weather Stations






























Interactive Weather Map New forecast layout! Learn more

10-Day Weather Forecast

Advertisements
Track Severe Weather on mobile